Time;durP1;ratioP1;P1;durP2;ratioP2;P2;SDS_P1;SDS_P2;PMS_P1;PMS_P2;Temp;Humidity;BMP_temperature;BMP_pressure;BME280_temperature;BME280_humidity;BME280_pressure;Samples;Min_cycle;Max_cycle;Signal;HPM_P1;HPM_P2
2023/08/15 00:00:17;;;;;;;2.13;1.10;;;;;;;16.59;75.97;100494.66;5074173;28;20037;-44
2023/08/15 00:02:44;;;;;;;2.03;1.25;;;;;;;16.58;76.04;100504.22;5073176;28;20056;-44
2023/08/15 00:05:11;;;;;;;4.00;1.42;;;;;;;16.60;76.18;100496.28;5072415;28;20169;-44
2023/08/15 00:07:38;;;;;;;1.27;1.05;;;;;;;16.58;76.00;100498.63;5078658;28;20059;-48
2023/08/15 00:10:05;;;;;;;5.03;1.05;;;;;;;16.53;76.16;100496.22;5065179;28;20134;-44
2023/08/15 00:12:32;;;;;;;1.35;0.88;;;;;;;16.52;76.20;100491.81;5082562;28;20138;-48
2023/08/15 00:14:59;;;;;;;4.85;1.50;;;;;;;16.52;76.28;100500.19;5073161;28;20040;-45
2023/08/15 00:17:26;;;;;;;3.95;1.10;;;;;;;16.51;76.32;100502.19;5076597;28;20508;-46
2023/08/15 00:19:53;;;;;;;3.65;1.85;;;;;;;16.51;76.32;100498.56;5078750;28;20076;-44
2023/08/15 00:22:20;;;;;;;3.38;1.65;;;;;;;16.47;76.43;100503.34;5081307;28;20071;-45
2023/08/15 00:24:46;;;;;;;1.40;0.82;;;;;;;16.44;76.66;100496.56;5073450;28;20494;-43
2023/08/15 00:27:13;;;;;;;4.50;1.25;;;;;;;16.38;76.65;100496.13;5073474;28;20514;-44
2023/08/15 00:29:41;;;;;;;5.30;1.70;;;;;;;16.36;76.83;100492.91;5086215;28;20397;-44
2023/08/15 00:32:08;;;;;;;4.03;1.25;;;;;;;16.35;76.88;100496.91;5082688;28;20398;-47
2023/08/15 00:34:35;;;;;;;3.75;1.27;;;;;;;16.32;77.09;100496.88;5074667;28;20048;-46
2023/08/15 00:37:01;;;;;;;4.53;1.42;;;;;;;16.30;77.14;100499.25;5080160;28;20433;-43
2023/08/15 00:39:28;;;;;;;3.05;1.25;;;;;;;16.27;77.31;100506.44;5081966;28;20040;-44
2023/08/15 00:41:55;;;;;;;2.65;1.20;;;;;;;16.25;77.38;100502.41;5069801;28;20512;-44
2023/08/15 00:44:22;;;;;;;3.05;0.98;;;;;;;16.24;77.51;100510.00;5072556;28;20055;-43
2023/08/15 00:46:49;;;;;;;3.42;1.30;;;;;;;16.25;77.50;100513.59;5072639;28;20486;-45
2023/08/15 00:49:17;;;;;;;5.53;1.30;;;;;;;16.20;77.55;100511.94;5073363;28;20043;-44
2023/08/15 00:51:46;;;;;;;4.47;1.17;;;;;;;16.20;77.58;100511.94;5073571;28;20038;-46
2023/08/15 00:54:17;;;;;;;3.22;1.27;;;;;;;16.15;77.62;100515.09;5073263;28;20051;-45
2023/08/15 00:56:44;;;;;;;6.88;1.52;;;;;;;16.10;77.73;100523.84;5073026;28;20132;-44
2023/08/15 00:59:11;;;;;;;11.73;2.45;;;;;;;16.05;77.82;100529.00;5073056;28;20037;-44
2023/08/15 01:01:38;;;;;;;10.52;2.45;;;;;;;16.04;78.03;100524.63;5073026;28;20062;-45
2023/08/15 01:04:06;;;;;;;4.47;1.30;;;;;;;16.07;78.08;100530.22;5066363;28;20060;-44
2023/08/15 01:06:33;;;;;;;4.53;1.20;;;;;;;16.02;78.24;100532.59;5072895;28;20055;-43
2023/08/15 01:09:01;;;;;;;2.85;1.20;;;;;;;16.01;78.28;100531.78;5073260;28;20476;-45
2023/08/15 01:11:39;;;;;;;9.10;2.17;;;;;;;15.93;78.49;100524.53;5075592;28;20508;-45
2023/08/15 01:14:12;;;;;;;3.42;1.15;;;;;;;15.91;78.65;100535.28;5072193;28;20444;-44
2023/08/15 01:16:44;;;;;;;5.32;0.90;;;;;;;15.91;78.60;100532.50;5071114;28;20051;-44
2023/08/15 01:19:18;;;;;;;1.60;1.05;;;;;;;15.92;78.81;100538.84;5075944;28;20130;-43
2023/08/15 01:21:48;;;;;;;1.17;0.95;;;;;;;15.98;78.73;100531.75;5080749;28;20045;-44
2023/08/15 01:24:15;;;;;;;5.25;0.77;;;;;;;16.03;78.58;100536.97;5069273;28;20126;-44
2023/08/15 01:26:42;;;;;;;5.88;1.33;;;;;;;16.04;78.63;100531.00;5082432;28;20071;-44
2023/08/15 01:29:09;;;;;;;3.90;1.10;;;;;;;16.06;78.56;100536.19;5076212;28;20387;-44
2023/08/15 01:31:59;;;;;;;1.98;1.05;;;;;;;16.07;78.72;100535.03;5078953;28;20714;-43
2023/08/15 01:34:36;;;;;;;2.05;1.15;;;;;;;15.97;78.80;100541.28;5072902;28;20517;-44
2023/08/15 01:37:08;;;;;;;2.85;1.00;;;;;;;15.96;78.97;100540.50;5076857;28;20117;-44
2023/08/15 01:39:38;;;;;;;3.38;2.05;;;;;;;15.96;79.17;100539.72;5072642;28;20040;-43
2023/08/15 01:42:06;;;;;;;2.70;1.40;;;;;;;15.89;79.21;100534.84;5084891;28;20098;-43
2023/08/15 01:44:35;;;;;;;5.03;1.42;;;;;;;15.86;79.46;100538.41;5073209;28;20052;-44
2023/08/15 01:47:02;;;;;;;3.53;1.48;;;;;;;15.89;79.64;100537.66;5080778;28;20036;-43
2023/08/15 01:49:29;;;;;;;6.20;1.60;;;;;;;15.92;79.76;100545.25;5079790;28;20075;-45
2023/08/15 01:51:57;;;;;;;1.70;1.20;;;;;;;15.93;79.67;100535.69;5088061;28;20052;-44
2023/08/15 01:54:24;;;;;;;3.10;1.55;;;;;;;15.93;79.58;100535.69;5069986;28;20132;-43
2023/08/15 01:56:50;;;;;;;1.92;1.15;;;;;;;15.95;79.49;100527.72;5070978;28;20067;-45
2023/08/15 01:59:17;;;;;;;5.10;1.70;;;;;;;15.89;79.59;100534.03;5072013;28;20099;-43
2023/08/15 02:01:44;;;;;;;2.65;1.00;;;;;;;15.78;79.70;100528.38;5071655;28;20061;-43
2023/08/15 02:04:11;;;;;;;2.92;1.00;;;;;;;15.72;79.87;100532.72;5070895;28;20483;-43
2023/08/15 02:06:38;;;;;;;3.95;0.90;;;;;;;15.67;80.14;100533.06;5071134;28;20053;-44
2023/08/15 02:09:05;;;;;;;3.70;1.10;;;;;;;15.64;80.19;100531.06;5071923;28;20055;-43
2023/08/15 02:11:32;;;;;;;3.55;1.30;;;;;;;15.63;80.41;100538.63;5071477;28;20398;-43
2023/08/15 02:13:58;;;;;;;3.05;1.10;;;;;;;15.63;80.50;100544.19;5070704;28;20526;-43
2023/08/15 02:16:25;;;;;;;3.63;1.38;;;;;;;15.66;80.51;100545.41;5071647;28;20067;-43
2023/08/15 02:18:52;;;;;;;6.22;1.45;;;;;;;15.66;80.46;100548.22;5071827;28;20093;-43
2023/08/15 02:21:19;;;;;;;3.33;1.42;;;;;;;15.65;80.67;100546.59;5071198;28;20822;-44
2023/08/15 02:23:46;;;;;;;3.15;1.50;;;;;;;15.70;80.71;100546.28;5074644;28;20478;-44
2023/08/15 02:26:12;;;;;;;5.68;1.50;;;;;;;15.72;80.78;100546.69;5082468;28;20109;-44
2023/08/15 02:28:39;;;;;;;3.50;1.73;;;;;;;15.76;80.82;100550.28;5080194;28;20702;-46
2023/08/15 02:31:07;;;;;;;4.28;1.15;;;;;;;15.78;80.84;100561.88;5072069;28;20053;-43
2023/08/15 02:33:33;;;;;;;2.25;1.00;;;;;;;15.78;80.85;100568.25;5072527;28;20044;-43
2023/08/15 02:36:08;;;;;;;2.63;1.08;;;;;;;15.75;81.25;100559.88;5070446;28;20050;-48
2023/08/15 02:38:35;;;;;;;5.53;1.25;;;;;;;15.73;81.14;100565.81;5083858;28;20044;-48
2023/08/15 02:41:02;;;;;;;6.47;1.85;;;;;;;15.69;81.44;100566.97;5080984;28;20858;-43
2023/08/15 02:43:29;;;;;;;4.65;1.05;;;;;;;15.64;81.53;100561.75;5075862;28;20040;-44
2023/08/15 02:45:55;;;;;;;3.65;1.10;;;;;;;15.63;81.69;100574.09;5074666;28;20079;-48
2023/08/15 02:48:22;;;;;;;5.68;1.48;;;;;;;15.57;81.94;100561.66;5071402;28;20490;-43
2023/08/15 02:50:49;;;;;;;11.00;2.38;;;;;;;15.55;82.06;100564.03;5078548;28;20398;-43
2023/08/15 02:53:16;;;;;;;3.88;1.23;;;;;;;15.54;82.15;100556.88;5076133;28;20040;-48
2023/08/15 02:55:43;;;;;;;3.60;1.42;;;;;;;15.50;82.42;100556.81;5069324;28;20048;-46
2023/08/15 02:58:10;;;;;;;2.90;1.20;;;;;;;15.51;82.58;100557.63;5079217;28;20521;-44
2023/08/15 03:00:38;;;;;;;4.45;1.42;;;;;;;15.52;82.68;100573.16;5148099;22;21027;-46
2023/08/15 03:03:05;;;;;;;3.70;1.88;;;;;;;15.51;82.72;100566.81;5030959;22;20139;-44
2023/08/15 03:05:37;;;;;;;3.22;1.42;;;;;;;15.50;82.94;100567.19;5019772;28;20391;-43
2023/08/15 03:08:04;;;;;;;3.03;1.30;;;;;;;15.52;83.04;100568.41;5030620;28;20041;-45
2023/08/15 03:10:36;;;;;;;4.38;1.40;;;;;;;15.52;83.15;100562.81;5031017;28;20127;-43
2023/08/15 03:13:03;;;;;;;4.78;1.65;;;;;;;15.51;83.35;100574.38;5027971;28;20049;-47
2023/08/15 03:15:30;;;;;;;3.78;1.55;;;;;;;15.51;83.43;100577.97;5030325;28;20064;-44
2023/08/15 03:17:57;;;;;;;5.47;1.55;;;;;;;15.52;83.63;100585.13;5030361;28;20103;-44
2023/08/15 03:20:25;;;;;;;2.22;1.15;;;;;;;15.48;83.82;100589.09;5030170;28;20050;-43
2023/08/15 03:22:54;;;;;;;6.70;1.42;;;;;;;15.48;83.89;100583.50;5030376;28;20042;-44
2023/08/15 03:25:21;;;;;;;5.50;1.80;;;;;;;15.44;84.14;100579.81;5028334;28;20080;-45
2023/08/15 03:27:48;;;;;;;4.45;1.13;;;;;;;15.40;84.44;100579.81;5029180;28;20103;-43
2023/08/15 03:30:15;;;;;;;3.17;1.48;;;;;;;15.38;84.52;100586.94;5029771;28;20046;-44
2023/08/15 03:32:43;;;;;;;4.82;1.90;;;;;;;15.40;84.59;100579.00;5030489;28;20133;-44
2023/08/15 03:35:10;;;;;;;4.32;1.25;;;;;;;15.44;84.74;100586.22;5028512;28;20056;-44
2023/08/15 03:37:37;;;;;;;5.70;1.48;;;;;;;15.42;84.83;100583.00;5029914;28;20049;-43
2023/08/15 03:40:04;;;;;;;5.00;1.70;;;;;;;15.39;84.93;100582.97;5029591;28;20058;-48
2023/08/15 03:42:31;;;;;;;4.03;1.45;;;;;;;15.39;85.21;100583.78;5028609;28;20037;-43
2023/08/15 03:44:57;;;;;;;2.10;1.50;;;;;;;15.33;85.45;100584.50;5028951;28;20054;-43
2023/08/15 03:47:24;;;;;;;6.13;1.67;;;;;;;15.36;85.46;100584.53;5029107;28;20041;-43
2023/08/15 03:49:51;;;;;;;3.10;1.50;;;;;;;15.35;85.65;100591.31;5030004;28;20060;-43
2023/08/15 03:52:18;;;;;;;4.72;1.58;;;;;;;15.35;85.69;100587.72;5029261;28;21420;-45
2023/08/15 03:54:45;;;;;;;5.82;1.60;;;;;;;15.37;85.89;100590.91;5022069;28;20053;-44
2023/08/15 03:57:11;;;;;;;3.97;1.63;;;;;;;15.39;85.92;100588.53;5027792;28;20045;-45
2023/08/15 03:59:38;;;;;;;2.30;1.27;;;;;;;15.42;85.84;100582.19;5029078;28;20046;-44
2023/08/15 04:02:07;;;;;;;4.10;1.05;;;;;;;15.39;86.03;100585.75;5027399;28;20069;-44
2023/08/15 04:04:34;;;;;;;4.90;1.80;;;;;;;15.37;86.02;100585.34;5025773;28;20259;-46
2023/08/15 04:07:01;;;;;;;3.90;1.42;;;;;;;15.34;86.26;100586.09;5032461;28;20053;-43
2023/08/15 04:09:28;;;;;;;4.53;1.25;;;;;;;15.33;86.49;100595.66;5032932;28;20049;-46
2023/08/15 04:11:56;;;;;;;2.35;1.20;;;;;;;15.35;86.53;100598.88;5033501;28;20060;-44
2023/08/15 04:14:23;;;;;;;24.95;3.97;;;;;;;15.37;86.72;100591.72;5030061;28;20152;-45
2023/08/15 04:16:49;;;;;;;2.50;1.60;;;;;;;15.37;86.58;100591.72;5033421;28;20046;-45
2023/08/15 04:19:16;;;;;;;3.90;1.40;;;;;;;15.34;86.75;100592.47;5032110;28;20041;-42
2023/08/15 04:21:43;;;;;;;9.00;3.20;;;;;;;15.36;86.88;100597.66;5030698;28;20046;-44
2023/08/15 04:24:10;;;;;;;8.68;2.80;;;;;;;15.31;87.03;100600.78;5030846;28;20041;-44
2023/08/15 04:26:37;;;;;;;4.82;1.75;;;;;;;15.31;87.09;100600.78;5031573;28;20049;-45
2023/08/15 04:29:04;;;;;;;6.43;1.60;;;;;;;15.30;87.34;100600.03;5030309;28;20530;-43
2023/08/15 04:31:31;;;;;;;3.92;1.60;;;;;;;15.31;87.44;100603.59;5031190;28;20165;-46
2023/08/15 04:33:58;;;;;;;5.35;1.52;;;;;;;15.27;87.63;100603.56;5031595;28;20419;-49
2023/08/15 04:36:25;;;;;;;8.35;1.88;;;;;;;15.25;87.84;100603.94;5027322;28;20050;-47
2023/08/15 04:38:52;;;;;;;11.25;2.08;;;;;;;15.29;87.81;100605.97;5030479;28;20061;-44
2023/08/15 04:41:18;;;;;;;7.82;2.15;;;;;;;15.27;87.98;100608.34;5032636;28;20048;-45
2023/08/15 04:43:45;;;;;;;6.57;1.52;;;;;;;15.24;88.11;100604.31;5030943;28;20049;-51
2023/08/15 04:46:12;;;;;;;3.88;1.38;;;;;;;15.23;88.43;100603.50;5031010;28;20510;-44
2023/08/15 04:48:39;;;;;;;7.20;2.97;;;;;;;15.22;88.30;100601.13;5030751;28;20140;-45
2023/08/15 04:51:06;;;;;;;6.18;1.63;;;;;;;15.20;88.54;100604.25;5031981;28;20049;-46
2023/08/15 04:53:33;;;;;;;4.28;1.40;;;;;;;15.23;88.46;100602.69;5031960;28;20133;-45
2023/08/15 04:55:59;;;;;;;5.40;2.15;;;;;;;15.21;88.69;100605.88;5032793;28;20131;-46
2023/08/15 04:58:26;;;;;;;1.50;1.40;;;;;;;15.19;88.71;100605.47;5034895;28;20052;-45
2023/08/15 05:00:53;;;;;;;3.65;1.48;;;;;;;15.20;88.87;100615.41;5028968;28;20049;-47
2023/08/15 05:03:20;;;;;;;3.05;1.73;;;;;;;15.19;88.73;100613.84;5030290;28;20049;-44
2023/08/15 05:05:48;;;;;;;1.88;1.30;;;;;;;15.18;88.93;100614.19;5032371;28;20534;-45
2023/08/15 05:08:16;;;;;;;5.38;1.65;;;;;;;15.19;89.07;100613.84;5032639;28;20487;-49
2023/08/15 05:10:43;;;;;;;3.67;1.60;;;;;;;15.21;89.10;100619.81;5032836;28;20041;-47
2023/08/15 05:13:10;;;;;;;3.35;1.00;;;;;;;15.22;89.21;100629.00;5032981;28;20079;-48
2023/08/15 05:15:37;;;;;;;3.30;1.40;;;;;;;15.24;89.24;100627.44;5035143;28;20371;-47
2023/08/15 05:18:04;;;;;;;3.38;1.52;;;;;;;15.26;89.21;100629.84;5029180;28;20050;-45
2023/08/15 05:20:34;;;;;;;4.40;1.52;;;;;;;15.27;89.01;100637.81;5032755;28;20085;-46
2023/08/15 05:23:01;;;;;;;5.47;1.60;;;;;;;15.27;88.93;100637.81;5033011;28;20137;-46
2023/08/15 05:25:27;;;;;;;3.45;1.48;;;;;;;15.27;88.98;100647.38;5031779;28;20445;-47
2023/08/15 05:28:04;;;;;;;2.05;1.35;;;;;;;15.24;89.08;100655.34;5032654;28;20705;-44
2023/08/15 05:30:34;;;;;;;10.13;2.45;;;;;;;15.22;89.05;100652.09;5032414;28;20063;-45
2023/08/15 05:33:02;;;;;;;4.18;1.50;;;;;;;15.23;89.00;100664.06;5032249;28;20426;-46
2023/08/15 05:35:30;;;;;;;1.48;1.35;;;;;;;15.19;89.12;100658.47;5027477;28;20045;-46
2023/08/15 05:37:57;;;;;;;8.07;1.55;;;;;;;15.18;89.04;100659.63;5030532;28;20144;-45
2023/08/15 05:40:25;;;;;;;4.32;1.10;;;;;;;15.14;88.81;100667.13;5029749;28;20053;-45
2023/08/15 05:42:52;;;;;;;1.83;1.30;;;;;;;15.11;88.99;100662.34;5023096;28;20384;-45
2023/08/15 05:45:19;;;;;;;7.50;1.45;;;;;;;15.10;88.98;100671.06;5031305;28;20136;-47
2023/08/15 05:47:46;;;;;;;6.00;1.77;;;;;;;15.07;89.12;100675.41;5031024;28;20059;-45
2023/08/15 05:50:13;;;;;;;6.70;1.90;;;;;;;15.13;89.08;100676.69;5023479;28;20452;-47
2023/08/15 05:52:39;;;;;;;6.47;2.45;;;;;;;15.12;88.96;100682.63;5028817;28;20049;-46
2023/08/15 05:55:07;;;;;;;5.13;1.35;;;;;;;15.13;89.09;100676.69;5033230;28;20107;-44
2023/08/15 05:57:33;;;;;;;2.40;1.38;;;;;;;15.18;89.06;100687.50;5031092;28;20044;-44
2023/08/15 06:00:00;;;;;;;2.92;1.20;;;;;;;15.31;89.24;100690.06;5027639;28;20045;-50
2023/08/15 06:02:28;;;;;;;7.18;1.90;;;;;;;15.40;88.98;100696.97;5031788;28;20419;-48
2023/08/15 06:04:56;;;;;;;4.85;1.23;;;;;;;15.49;88.91;100699.53;5032351;28;20053;-44
2023/08/15 06:07:24;;;;;;;3.65;1.30;;;;;;;15.54;88.81;100701.97;5029814;28;20084;-45
2023/08/15 06:09:50;;;;;;;2.35;1.00;;;;;;;15.54;88.55;100707.56;5047128;28;20056;-46
2023/08/15 06:12:17;;;;;;;4.00;1.23;;;;;;;15.50;88.47;100707.50;5031893;28;20056;-45
2023/08/15 06:14:44;;;;;;;1.42;0.90;;;;;;;15.50;88.55;100717.84;5031937;28;20480;-45
2023/08/15 06:17:14;;;;;;;3.33;1.10;;;;;;;15.57;88.71;100713.16;5030766;28;20087;-46
2023/08/15 06:19:41;;;;;;;3.78;0.98;;;;;;;15.67;88.56;100717.28;5026671;28;20361;-44
2023/08/15 06:22:08;;;;;;;5.00;0.98;;;;;;;15.76;88.36;100720.56;5031036;28;20050;-46
2023/08/15 06:24:35;;;;;;;5.93;1.25;;;;;;;15.77;88.24;100722.19;5030747;28;20041;-44
2023/08/15 06:27:03;;;;;;;3.33;1.00;;;;;;;15.88;88.22;100723.13;5026553;28;20050;-47
2023/08/15 06:29:29;;;;;;;1.88;0.70;;;;;;;15.95;87.71;100731.56;5022388;28;20049;-44
2023/08/15 06:31:57;;;;;;;7.03;2.95;;;;;;;16.00;87.47;100725.63;5028684;28;20053;-44
2023/08/15 06:34:29;;;;;;;4.60;1.25;;;;;;;16.10;87.74;100721.34;5030068;28;20061;-44
2023/08/15 06:36:55;;;;;;;6.32;1.08;;;;;;;16.18;87.33;100731.41;5028887;28;20438;-44
2023/08/15 06:39:22;;;;;;;1.10;0.70;;;;;;;16.20;87.07;100735.41;5028556;28;20051;-45
2023/08/15 06:41:49;;;;;;;1.88;1.10;;;;;;;16.19;86.88;100739.41;5028941;28;20100;-45
2023/08/15 06:44:16;;;;;;;2.30;1.10;;;;;;;16.20;86.85;100740.22;5030075;28;20045;-46
2023/08/15 06:46:43;;;;;;;4.35;1.52;;;;;;;16.19;86.64;100750.59;5021567;28;20487;-45
2023/08/15 06:49:10;;;;;;;1.40;1.30;;;;;;;16.16;86.55;100750.53;5028300;28;20076;-44
2023/08/15 06:51:36;;;;;;;6.35;1.45;;;;;;;16.16;86.62;100754.16;5030733;28;20056;-44
2023/08/15 06:54:04;;;;;;;1.77;0.80;;;;;;;16.22;86.50;100766.59;5030983;28;20045;-44
2023/08/15 06:56:30;;;;;;;4.07;1.17;;;;;;;16.20;86.26;100763.34;5030826;28;20103;-45
2023/08/15 06:58:57;;;;;;;6.20;1.27;;;;;;;16.10;86.18;100775.22;5023204;28;20064;-45
2023/08/15 07:01:24;;;;;;;1.65;0.93;;;;;;;16.07;86.36;100772.41;5028784;28;20041;-44
2023/08/15 07:03:51;;;;;;;3.00;0.75;;;;;;;16.01;86.26;100771.94;5028807;28;20068;-46
2023/08/15 07:06:18;;;;;;;4.07;1.05;;;;;;;16.01;86.30;100785.91;5021250;28;20052;-48
2023/08/15 07:08:46;;;;;;;2.75;1.08;;;;;;;16.10;86.35;100786.38;5029399;28;20038;-46
2023/08/15 07:11:13;;;;;;;3.17;1.10;;;;;;;16.24;86.27;100780.97;5029978;28;20053;-46
2023/08/15 07:13:40;;;;;;;2.95;1.20;;;;;;;16.34;86.10;100785.06;5029656;28;20395;-46
2023/08/15 07:16:07;;;;;;;57.38;35.80;;;;;;;16.39;85.60;100791.09;5031442;28;20073;-45
2023/08/15 07:18:35;;;;;;;2.47;1.67;;;;;;;16.43;85.55;100789.16;5027834;28;20052;-46
2023/08/15 07:21:03;;;;;;;2.60;1.30;;;;;;;16.49;85.41;100786.03;5027858;28;20041;-49
2023/08/15 07:23:30;;;;;;;1.98;0.82;;;;;;;16.44;85.40;100790.75;5028688;28;20064;-47
2023/08/15 07:25:57;;;;;;;4.65;1.40;;;;;;;16.46;85.60;100798.78;5030403;28;20120;-46
2023/08/15 07:28:24;;;;;;;5.90;1.27;;;;;;;16.47;85.65;100794.00;5032209;28;20044;-49
2023/08/15 07:30:51;;;;;;;3.53;2.03;;;;;;;16.47;85.48;100800.34;5029505;28;20053;-49
2023/08/15 07:33:18;;;;;;;2.55;0.90;;;;;;;16.45;85.38;100808.34;5026500;28;20049;-48
2023/08/15 07:35:46;;;;;;;2.40;0.75;;;;;;;16.42;85.25;100804.31;5045790;28;20180;-52
2023/08/15 07:38:13;;;;;;;3.33;1.23;;;;;;;16.44;85.10;100815.91;5031002;28;20399;-48
2023/08/15 07:40:41;;;;;;;3.25;1.30;;;;;;;16.50;84.92;100815.56;5034337;28;20099;-48
2023/08/15 07:43:07;;;;;;;3.60;1.30;;;;;;;16.50;84.77;100815.56;5033941;28;20171;-49
2023/08/15 07:45:34;;;;;;;1.92;1.20;;;;;;;16.45;84.68;100825.91;5033054;28;20495;-50
2023/08/15 07:48:01;;;;;;;3.67;0.93;;;;;;;16.45;84.64;100820.31;5046111;28;20055;-49
2023/08/15 07:50:28;;;;;;;1.55;0.95;;;;;;;16.45;84.56;100825.91;5034343;28;20507;-48
2023/08/15 07:52:58;;;;;;;1.73;0.75;;;;;;;16.48;84.38;100817.94;5034184;28;20068;-52
2023/08/15 07:55:30;;;;;;;1.10;0.80;;;;;;;16.51;84.50;100833.94;5034695;28;20509;-50
2023/08/15 07:57:59;;;;;;;2.70;1.10;;;;;;;16.55;84.65;100834.84;5034421;28;20140;-52
2023/08/15 08:00:26;;;;;;;3.40;1.02;;;;;;;16.57;84.40;100843.63;5034338;28;20056;-50
2023/08/15 08:02:53;;;;;;;5.25;1.27;;;;;;;16.51;84.35;100847.91;5033375;28;20103;-47
2023/08/15 08:05:21;;;;;;;6.13;1.23;;;;;;;16.47;84.52;100844.28;5034211;28;20052;-51
2023/08/15 08:07:49;;;;;;;2.38;0.82;;;;;;;16.50;84.64;100854.69;5034439;28;20038;-51
2023/08/15 08:10:16;;;;;;;1.60;1.05;;;;;;;16.54;84.73;100855.56;5034072;28;20394;-51
2023/08/15 08:12:45;;;;;;;3.75;1.02;;;;;;;16.64;84.23;100854.88;5033264;28;20045;-48
2023/08/15 08:15:14;;;;;;;2.03;1.23;;;;;;;16.77;84.08;100859.00;5036570;28;20406;-50
2023/08/15 08:17:41;;;;;;;3.17;1.20;;;;;;;16.85;83.96;100855.09;5032955;28;20515;-49
2023/08/15 08:20:16;;;;;;;4.45;0.90;;;;;;;17.04;84.00;100857.66;5033002;28;20399;-48
2023/08/15 08:22:43;;;;;;;1.85;1.02;;;;;;;17.19;83.51;100858.59;5034006;28;20084;-49
2023/08/15 08:25:16;;;;;;;1.63;0.70;;;;;;;17.26;83.25;100861.47;5033868;28;20128;-47
2023/08/15 08:27:44;;;;;;;1.52;0.88;;;;;;;17.36;83.13;100867.16;5035511;28;20044;-47
2023/08/15 08:30:20;;;;;;;4.20;1.38;;;;;;;17.48;82.78;100866.81;5032429;28;20511;-48
2023/08/15 08:32:47;;;;;;;10.50;2.20;;;;;;;17.49;82.76;100878.81;5033579;28;20049;-47
2023/08/15 08:35:17;;;;;;;2.78;1.08;;;;;;;17.46;82.43;100871.19;5033692;28;20041;-48
2023/08/15 08:37:46;;;;;;;3.22;1.55;;;;;;;17.39;82.82;100871.97;5033689;28;20053;-48
2023/08/15 08:40:17;;;;;;;5.85;1.40;;;;;;;17.30;82.61;100877.09;5032957;28;20037;-47
2023/08/15 08:42:45;;;;;;;3.23;1.43;;;;;;;17.24;82.76;100884.22;5029026;28;20077;-49
2023/08/15 08:45:13;;;;;;;8.68;2.15;;;;;;;17.24;82.89;100883.41;5033814;28;20095;-49
2023/08/15 08:47:41;;;;;;;3.22;1.52;;;;;;;17.24;82.82;100878.63;5033364;28;20041;-49
2023/08/15 08:50:11;;;;;;;4.03;1.45;;;;;;;17.30;82.93;100891.06;5033214;28;20053;-48
2023/08/15 08:52:41;;;;;;;3.20;0.93;;;;;;;17.48;82.59;100886.41;5032339;28;20057;-47
2023/08/15 08:55:08;;;;;;;7.60;1.20;;;;;;;17.64;82.35;100886.97;5033364;28;20103;-45
2023/08/15 08:57:39;;;;;;;3.92;0.93;;;;;;;17.85;81.86;100897.50;5033012;28;20057;-43
2023/08/15 09:00:07;;;;;;;1.85;0.70;;;;;;;18.04;81.44;100899.22;5033171;28;20514;-44
2023/08/15 09:02:35;;;;;;;2.28;0.80;;;;;;;18.22;80.96;100908.50;5030515;28;20446;-48
2023/08/15 09:05:04;;;;;;;2.05;0.70;;;;;;;18.35;80.76;100909.78;5027882;28;20140;-46
2023/08/15 09:07:33;;;;;;;3.72;1.63;;;;;;;18.36;80.10;100905.78;5033199;28;20475;-44
2023/08/15 09:10:00;;;;;;;1.30;0.85;;;;;;;18.36;79.79;100904.97;5032693;28;20053;-45
2023/08/15 09:12:38;;;;;;;2.88;0.93;;;;;;;18.31;79.66;100905.34;5032186;28;20049;-44
2023/08/15 09:15:09;;;;;;;2.70;0.95;;;;;;;18.30;79.57;100906.53;5030244;28;20041;-44
2023/08/15 09:17:38;;;;;;;1.60;1.17;;;;;;;18.37;79.16;100910.19;5033164;28;20099;-44
2023/08/15 09:20:16;;;;;;;1.52;1.13;;;;;;;18.85;79.89;100910.75;5032292;28;20056;-44
2023/08/15 09:22:45;;;;;;;1.55;0.90;;;;;;;19.88;77.24;100914.47;5032094;28;20049;-45
2023/08/15 09:25:20;;;;;;;3.03;1.10;;;;;;;20.71;75.77;100925.03;5019955;28;20567;-43
2023/08/15 09:27:47;;;;;;;2.25;1.02;;;;;;;21.26;74.16;100916.69;5032665;28;20503;-45
2023/08/15 09:30:16;;;;;;;0.85;0.75;;;;;;;21.64;72.37;100915.56;5032566;28;20395;-44
2023/08/15 09:32:45;;;;;;;1.55;0.77;;;;;;;21.70;71.25;100919.53;5031610;28;20136;-45
2023/08/15 09:35:14;;;;;;;4.00;1.25;;;;;;;21.48;69.93;100923.75;5032736;28;20045;-45
2023/08/15 09:37:49;;;;;;;2.65;0.90;;;;;;;21.01;70.49;100917.63;5030043;28;20049;-45
2023/08/15 09:40:20;;;;;;;1.30;1.08;;;;;;;20.64;70.02;100926.69;5032692;28;20037;-45
2023/08/15 09:42:51;;;;;;;2.15;1.38;;;;;;;20.22;70.06;100926.81;5032667;28;20454;-44
2023/08/15 09:45:19;;;;;;;1.45;1.35;;;;;;;19.88;70.13;100929.28;5030726;28;20073;-47
2023/08/15 09:47:46;;;;;;;1.95;1.02;;;;;;;19.66;70.51;100926.91;5030705;28;20365;-45
2023/08/15 09:50:15;;;;;;;3.22;1.58;;;;;;;19.51;70.50;100922.53;5032263;28;20049;-45
2023/08/15 09:52:44;;;;;;;1.95;1.40;;;;;;;19.44;70.42;100926.13;5032393;28;20064;-45
2023/08/15 09:55:16;;;;;;;3.17;1.23;;;;;;;19.58;70.84;100930.94;5032145;28;20045;-46
2023/08/15 09:57:44;;;;;;;1.20;1.10;;;;;;;20.31;69.40;100937.66;5041486;28;20041;-45
2023/08/15 10:00:12;;;;;;;1.67;1.25;;;;;;;20.68;67.80;100939.94;5031956;28;20045;-46
2023/08/15 10:03:06;;;;;;;2.60;1.50;;;;;;;20.49;68.01;100932.78;5030442;28;20064;-46
2023/08/15 10:05:33;;;;;;;2.00;1.60;;;;;;;20.14;68.56;100941.28;5016563;28;20132;-47
2023/08/15 10:08:01;;;;;;;2.30;1.48;;;;;;;19.77;69.31;100939.75;5032032;28;20052;-44
2023/08/15 10:10:33;;;;;;;4.00;1.30;;;;;;;19.44;69.78;100948.56;5031484;28;20052;-45
2023/08/15 10:13:00;;;;;;;5.40;2.55;;;;;;;19.14;70.41;100950.94;5033975;28;20140;-46
2023/08/15 10:15:30;;;;;;;4.97;1.50;;;;;;;18.95;71.12;100942.88;5014353;28;20042;-44
2023/08/15 10:17:58;;;;;;;3.88;1.30;;;;;;;18.89;71.91;100945.25;5025414;28;20052;-44
2023/08/15 10:20:25;;;;;;;1.73;1.50;;;;;;;18.88;72.23;100942.88;5031429;28;20487;-44
2023/08/15 10:22:58;;;;;;;3.25;1.10;;;;;;;18.92;72.56;100943.66;5031942;28;20119;-44
2023/08/15 10:25:35;;;;;;;3.63;1.35;;;;;;;18.99;72.41;100946.47;5029503;28;20490;-44
2023/08/15 10:28:11;;;;;;;2.30;0.80;;;;;;;19.06;72.97;100954.94;5031642;28;20140;-44
2023/08/15 10:30:46;;;;;;;3.88;1.15;;;;;;;18.99;72.64;100949.28;5031544;28;20049;-45
2023/08/15 10:33:23;;;;;;;1.90;0.88;;;;;;;18.85;72.04;100959.25;5030320;28;20709;-43
2023/08/15 10:35:55;;;;;;;;;;;;;;;18.57;72.68;100959.16;5030281;28;20129;-43
2023/08/15 10:38:28;;;;;;;3.22;0.80;;;;;;;18.39;73.28;100965.84;5031380;28;20016;-47
2023/08/15 10:41:01;;;;;;;2.60;1.05;;;;;;;18.17;73.64;100962.13;5031529;28;20057;-44
2023/08/15 10:43:28;;;;;;;2.40;0.90;;;;;;;18.11;74.77;100972.91;5031412;28;20149;-44
2023/08/15 10:46:01;;;;;;;2.58;0.68;;;;;;;18.14;75.12;100974.13;5030219;28;20045;-44
2023/08/15 10:49:14;;;;;;;6.47;1.17;;;;;;;18.13;75.32;100970.53;5031259;28;20045;-44
2023/08/15 10:51:41;;;;;;;2.35;0.77;;;;;;;18.17;75.80;100964.94;5029161;28;20056;-46
2023/08/15 10:54:16;;;;;;;8.93;1.27;;;;;;;18.25;76.09;100966.59;5030018;28;20045;-44
2023/08/15 10:56:43;;;;;;;5.10;1.60;;;;;;;18.35;76.33;100968.63;5022519;28;20061;-46
2023/08/15 10:59:17;;;;;;;2.33;1.10;;;;;;;18.38;76.02;100965.06;5017991;28;20132;-43
2023/08/15 11:01:46;;;;;;;1.63;1.00;;;;;;;18.37;76.70;100969.06;5045749;28;20045;-43
2023/08/15 11:04:18;;;;;;;4.00;1.30;;;;;;;18.39;76.69;100965.84;5031000;28;20135;-44
2023/08/15 11:06:49;;;;;;;2.90;1.08;;;;;;;18.39;77.05;100966.66;5030238;28;20107;-44
2023/08/15 11:09:17;;;;;;;1.67;1.25;;;;;;;18.42;77.07;100971.50;5030895;28;20559;-44
2023/08/15 11:11:48;;;;;;;;;;;;;;;18.52;76.85;100975.56;5031284;28;20128;-44
2023/08/15 11:14:16;;;;;;;3.67;1.35;;;;;;;18.74;76.17;100972.44;5015731;28;20286;-44
2023/08/15 11:16:45;;;;;;;3.20;0.77;;;;;;;19.05;75.64;100972.94;5028665;28;20511;-44
2023/08/15 11:19:19;;;;;;;3.05;1.10;;;;;;;19.53;74.86;100981.88;5031054;28;20092;-47
2023/08/15 11:21:47;;;;;;;2.42;0.80;;;;;;;19.89;74.43;100987.09;5031098;28;20136;-46
2023/08/15 11:24:14;;;;;;;2.13;0.77;;;;;;;20.08;73.56;100982.25;5029585;28;20050;-44
2023/08/15 11:26:41;;;;;;;1.27;0.90;;;;;;;20.11;73.02;100984.25;5030032;28;20046;-44
2023/08/15 11:29:10;;;;;;;1.92;0.93;;;;;;;20.12;73.14;100985.88;5030702;28;20041;-46